createdAt,value
2018-07-12T00:02:00.327Z,99.90
2018-07-12T00:04:27.744Z,99.90
2018-07-12T00:06:55.313Z,99.90
2018-07-12T00:09:22.779Z,99.90
2018-07-12T00:11:50.228Z,99.90
2018-07-12T00:14:17.735Z,99.90
2018-07-12T00:19:12.852Z,99.90
2018-07-12T00:21:40.283Z,99.90
2018-07-12T00:24:07.739Z,99.90
2018-07-12T00:26:35.201Z,99.90
2018-07-12T00:29:02.641Z,99.90
2018-07-12T00:31:30.126Z,99.90
2018-07-12T00:33:57.590Z,99.90
2018-07-12T00:36:25.054Z,99.90
2018-07-12T00:38:52.493Z,99.90
2018-07-12T00:41:19.930Z,99.90
2018-07-12T00:43:47.399Z,99.90
2018-07-12T00:46:14.900Z,99.90
2018-07-12T00:48:42.363Z,99.90
2018-07-12T00:51:09.824Z,99.90
2018-07-12T00:53:37.282Z,99.90
2018-07-12T00:56:04.740Z,99.90
2018-07-12T00:58:32.170Z,99.90
2018-07-12T01:00:59.615Z,99.90
2018-07-12T01:03:27.076Z,99.90
2018-07-12T01:05:54.517Z,99.90
2018-07-12T01:08:21.978Z,99.90
2018-07-12T01:10:49.407Z,99.90
2018-07-12T01:13:16.820Z,99.90
2018-07-12T01:15:44.289Z,99.90
2018-07-12T01:18:11.714Z,99.90
2018-07-12T01:20:39.179Z,99.90
2018-07-12T01:25:34.294Z,99.90
2018-07-12T01:28:01.747Z,99.90
2018-07-12T01:30:29.214Z,99.90
2018-07-12T01:32:56.681Z,99.90
2018-07-12T01:35:24.104Z,99.90
2018-07-12T01:37:51.572Z,99.90
2018-07-12T01:40:19.014Z,99.90
2018-07-12T01:42:46.435Z,99.90
2018-07-12T01:45:13.906Z,99.90
2018-07-12T01:47:41.329Z,99.90
2018-07-12T01:50:08.768Z,99.90
2018-07-12T01:52:36.229Z,99.90
2018-07-12T01:55:03.642Z,99.90
2018-07-12T01:57:31.113Z,99.90
2018-07-12T01:59:58.535Z,99.90
2018-07-12T02:02:25.962Z,99.90
2018-07-12T02:07:27.487Z,99.90
2018-07-12T02:09:54.941Z,99.90
2018-07-12T02:12:22.449Z,99.90
2018-07-12T02:14:49.894Z,99.90
2018-07-12T02:17:17.317Z,99.90
2018-07-12T02:19:44.759Z,99.90
2018-07-12T02:22:12.203Z,99.90
2018-07-12T02:24:39.641Z,99.90
2018-07-12T02:27:07.085Z,99.90
2018-07-12T02:29:34.504Z,99.90
2018-07-12T02:32:01.953Z,99.90
2018-07-12T02:34:29.374Z,99.90
2018-07-12T02:36:56.799Z,99.90
2018-07-12T02:39:24.267Z,99.90
2018-07-12T02:41:51.707Z,99.90
2018-07-12T02:44:19.165Z,99.90
2018-07-12T02:46:46.596Z,99.90
2018-07-12T02:49:14.268Z,99.90
2018-07-12T02:51:41.703Z,99.90
2018-07-12T02:54:09.118Z,99.90
2018-07-12T02:56:36.569Z,99.90
2018-07-12T02:59:04.120Z,99.90
2018-07-12T03:01:31.600Z,99.90
2018-07-12T03:03:59.096Z,99.90
2018-07-12T03:06:26.707Z,99.90
2018-07-12T03:08:54.137Z,99.90
2018-07-12T03:11:21.563Z,99.90
2018-07-12T03:13:49.034Z,99.90
2018-07-12T03:16:16.464Z,99.90
2018-07-12T03:18:43.910Z,99.90
2018-07-12T03:21:11.331Z,99.90
2018-07-12T03:23:38.793Z,99.90
2018-07-12T03:26:06.231Z,99.90
2018-07-12T03:28:33.666Z,99.90
2018-07-12T03:31:01.134Z,99.90
2018-07-12T03:33:28.549Z,99.90
2018-07-12T03:35:55.999Z,99.90
2018-07-12T03:38:23.446Z,99.90
2018-07-12T03:40:51.335Z,99.90
2018-07-12T03:43:18.749Z,99.90
2018-07-12T03:45:46.201Z,99.90
2018-07-12T03:48:13.728Z,99.90
2018-07-12T03:50:41.145Z,99.90
2018-07-12T03:53:08.625Z,99.90
2018-07-12T03:55:36.073Z,99.90
2018-07-12T03:58:03.536Z,99.90
2018-07-12T04:00:31.002Z,99.90
2018-07-12T04:02:58.414Z,99.90
2018-07-12T04:05:25.857Z,99.90
2018-07-12T04:07:53.282Z,99.90
2018-07-12T04:10:20.729Z,99.90
2018-07-12T04:12:48.201Z,99.90
2018-07-12T04:15:15.638Z,99.90
2018-07-12T04:17:43.090Z,99.90
2018-07-12T04:20:10.527Z,99.90
2018-07-12T04:22:37.996Z,99.90
2018-07-12T04:25:05.578Z,99.90
2018-07-12T04:27:33.002Z,99.90
2018-07-12T04:30:00.916Z,99.90
2018-07-12T04:32:28.341Z,99.90
2018-07-12T04:34:55.799Z,99.90
2018-07-12T04:37:23.237Z,99.90
2018-07-12T04:39:50.646Z,99.90
2018-07-12T04:42:18.085Z,99.90
2018-07-12T04:44:45.508Z,99.90
2018-07-12T04:47:12.961Z,99.90
2018-07-12T04:49:40.402Z,99.90
2018-07-12T04:52:07.835Z,99.90
2018-07-12T04:54:35.306Z,99.90
2018-07-12T04:57:02.745Z,99.90
2018-07-12T04:59:30.223Z,99.90
2018-07-12T05:01:57.643Z,99.90
2018-07-12T05:04:25.072Z,99.90
2018-07-12T05:06:52.717Z,99.90
2018-07-12T05:09:20.153Z,99.90
2018-07-12T05:11:47.889Z,99.90
2018-07-12T05:14:15.637Z,99.90
2018-07-12T05:16:43.317Z,99.90
2018-07-12T05:19:11.028Z,99.90
2018-07-12T05:21:38.462Z,99.90
2018-07-12T05:24:05.910Z,99.90
2018-07-12T05:26:33.337Z,99.90
2018-07-12T05:29:00.765Z,99.90
2018-07-12T05:31:28.192Z,99.90
2018-07-12T05:33:55.618Z,99.90
2018-07-12T05:37:04.069Z,99.90
2018-07-12T05:39:32.713Z,99.90
2018-07-12T05:42:01.394Z,99.90
2018-07-12T05:44:30.523Z,99.90
2018-07-12T05:46:59.651Z,99.90
2018-07-12T05:49:28.881Z,99.90
2018-07-12T05:54:26.712Z,99.90
2018-07-12T05:56:55.887Z,99.90
2018-07-12T05:59:25.269Z,99.90
2018-07-12T06:02:05.146Z,99.90
2018-07-12T06:04:33.830Z,99.90
2018-07-12T06:07:02.508Z,99.90
2018-07-12T06:09:31.183Z,99.90
2018-07-12T06:11:59.896Z,99.90
2018-07-12T06:14:28.576Z,99.90
2018-07-12T06:16:57.296Z,99.90
2018-07-12T06:19:25.937Z,99.90
2018-07-12T06:21:54.613Z,99.90
2018-07-12T06:24:24.194Z,99.90
2018-07-12T06:26:52.852Z,99.90
2018-07-12T06:29:21.586Z,99.90
2018-07-12T06:31:50.261Z,99.90
2018-07-12T06:34:18.948Z,99.90
2018-07-12T06:36:47.604Z,99.90
2018-07-12T06:39:16.318Z,99.90
2018-07-12T06:41:45.026Z,99.90
2018-07-12T06:44:13.751Z,99.90
2018-07-12T06:46:42.446Z,99.90
2018-07-12T06:49:11.100Z,99.90
2018-07-12T06:51:39.859Z,99.90
2018-07-12T06:54:08.528Z,99.90
2018-07-12T06:56:37.224Z,99.90
2018-07-12T06:59:06.025Z,99.90
2018-07-12T07:01:34.716Z,99.90
2018-07-12T07:04:03.454Z,99.90
2018-07-12T07:06:32.134Z,99.90
2018-07-12T07:09:00.838Z,99.90
2018-07-12T07:11:29.476Z,99.90
2018-07-12T07:13:58.172Z,99.90
2018-07-12T07:16:27.037Z,99.90
2018-07-12T07:18:55.750Z,99.90
2018-07-12T07:21:24.415Z,99.90
2018-07-12T07:23:53.125Z,99.90
2018-07-12T07:26:21.865Z,99.90
2018-07-12T07:28:50.514Z,99.90
2018-07-12T07:31:19.193Z,99.90
2018-07-12T07:33:47.864Z,99.90
2018-07-12T07:36:16.601Z,99.90
2018-07-12T07:38:45.772Z,99.90
2018-07-12T07:41:14.678Z,99.90
2018-07-12T07:43:43.549Z,99.90
2018-07-12T07:46:12.249Z,99.90
2018-07-12T07:48:40.910Z,99.90
2018-07-12T07:51:10.033Z,99.90
2018-07-12T07:53:38.901Z,99.90
2018-07-12T07:56:07.768Z,99.90
2018-07-12T07:58:36.455Z,99.90
2018-07-12T08:01:05.125Z,99.90
2018-07-12T08:03:33.829Z,99.90
2018-07-12T08:06:02.511Z,99.90
2018-07-12T08:08:31.181Z,99.90
2018-07-12T08:10:59.879Z,99.90
2018-07-12T08:13:28.557Z,99.90
2018-07-12T08:15:57.220Z,99.90
2018-07-12T08:18:34.706Z,99.90
2018-07-12T08:21:03.742Z,99.90
2018-07-12T08:23:32.443Z,99.90
2018-07-12T08:26:01.124Z,99.90
2018-07-12T08:28:30.474Z,99.90
2018-07-12T08:30:59.215Z,99.90
2018-07-12T08:33:27.968Z,99.90
2018-07-12T08:35:56.631Z,99.90
2018-07-12T08:38:25.351Z,99.90
2018-07-12T08:40:54.131Z,99.90
2018-07-12T08:43:23.806Z,99.90
2018-07-12T08:45:52.514Z,99.90
2018-07-12T08:48:21.231Z,99.90
2018-07-12T08:50:49.950Z,99.90
2018-07-12T08:53:18.625Z,99.90
2018-07-12T08:55:47.331Z,99.90
2018-07-12T08:58:15.994Z,99.90
2018-07-12T09:00:44.678Z,99.90
2018-07-12T09:03:13.369Z,99.10
2018-07-12T09:05:42.065Z,99.60
2018-07-12T09:08:10.782Z,99.70
2018-07-12T09:10:39.456Z,98.70
2018-07-12T09:13:08.186Z,97.10
2018-07-12T09:15:36.857Z,97.50
2018-07-12T09:18:05.598Z,96.90
2018-07-12T09:20:34.248Z,97.00
2018-07-12T09:23:02.943Z,96.30
2018-07-12T09:25:31.672Z,96.20
2018-07-12T09:28:00.322Z,96.50
2018-07-12T09:30:29.006Z,96.60
2018-07-12T09:32:57.694Z,96.30
2018-07-12T09:35:26.380Z,96.30
2018-07-12T09:37:55.100Z,97.20
2018-07-12T09:40:23.798Z,96.00
2018-07-12T09:42:52.535Z,96.60
2018-07-12T09:45:21.215Z,96.80
2018-07-12T09:47:49.918Z,97.10
2018-07-12T09:50:18.585Z,97.50
2018-07-12T09:52:47.299Z,95.90
2018-07-12T09:55:15.985Z,95.80
2018-07-12T09:57:55.761Z,95.50
2018-07-12T10:02:38.497Z,95.30
2018-07-12T10:06:13.933Z,94.50
2018-07-12T10:08:47.861Z,94.40
2018-07-12T10:11:21.991Z,93.00
2018-07-12T10:14:59.630Z,92.50
2018-07-12T10:17:33.550Z,92.00
2018-07-12T10:20:03.802Z,91.90
2018-07-12T10:22:32.526Z,92.20
2018-07-12T10:25:01.225Z,92.50
2018-07-12T10:27:30.010Z,93.20
2018-07-12T10:29:58.754Z,92.60
2018-07-12T10:32:27.440Z,92.40
2018-07-12T10:34:56.134Z,91.40
2018-07-12T10:37:24.807Z,90.30
2018-07-12T10:39:53.451Z,89.80
2018-07-12T10:42:23.673Z,90.30
2018-07-12T10:44:52.904Z,88.80
2018-07-12T10:47:22.073Z,87.10
2018-07-12T10:49:50.785Z,85.50
2018-07-12T10:52:19.462Z,82.00
2018-07-12T10:54:48.165Z,82.40
2018-07-12T10:57:16.880Z,81.20
2018-07-12T10:59:45.555Z,80.50
2018-07-12T11:02:14.272Z,80.40
2018-07-12T11:04:42.963Z,79.20
2018-07-12T11:07:11.680Z,78.40
2018-07-12T11:09:40.388Z,78.40
2018-07-12T11:12:09.110Z,77.80
2018-07-12T11:14:37.791Z,75.90
2018-07-12T11:17:06.497Z,74.50
2018-07-12T11:19:35.218Z,73.90
2018-07-12T11:22:03.916Z,72.70
2018-07-12T11:24:32.618Z,69.20
2018-07-12T11:27:01.292Z,73.70
2018-07-12T11:29:41.021Z,70.60
2018-07-12T11:32:09.736Z,70.10
2018-07-12T11:34:38.425Z,67.50
2018-07-12T11:37:07.204Z,68.40
2018-07-12T11:39:35.836Z,66.30
2018-07-12T11:42:04.557Z,65.00
2018-07-12T11:44:33.275Z,65.60
2018-07-12T11:47:01.969Z,65.40
2018-07-12T11:49:30.792Z,68.50
2018-07-12T11:51:59.493Z,65.30
2018-07-12T11:54:28.191Z,64.10
2018-07-12T11:56:56.880Z,62.70
2018-07-12T11:59:25.611Z,61.40
2018-07-12T12:01:54.413Z,61.60
2018-07-12T12:04:23.041Z,60.90
2018-07-12T12:06:51.769Z,61.70
2018-07-12T12:09:20.555Z,62.50
2018-07-12T12:11:49.221Z,62.30
2018-07-12T12:14:17.916Z,62.50
2018-07-12T12:16:46.581Z,63.40
2018-07-12T12:19:15.256Z,64.80
2018-07-12T12:21:43.948Z,64.70
2018-07-12T12:24:12.621Z,62.50
2018-07-12T12:26:41.283Z,60.40
2018-07-12T12:31:38.310Z,57.00
2018-07-12T12:34:07.039Z,56.80
2018-07-12T12:36:35.755Z,56.50
2018-07-12T12:39:05.840Z,56.60
2018-07-12T12:41:34.708Z,55.10
2018-07-12T12:44:03.461Z,56.20
2018-07-12T12:46:32.109Z,57.60
2018-07-12T12:49:00.806Z,56.40
2018-07-12T12:51:29.460Z,55.90
2018-07-12T12:53:58.199Z,54.20
2018-07-12T12:56:27.025Z,54.30
2018-07-12T12:58:56.705Z,55.90
2018-07-12T13:01:25.493Z,52.40
2018-07-12T13:03:54.165Z,52.10
2018-07-12T13:06:23.382Z,52.30
2018-07-12T13:08:52.084Z,52.40
2018-07-12T13:11:20.812Z,53.60
2018-07-12T13:13:49.612Z,53.10
2018-07-12T13:16:18.277Z,51.00
2018-07-12T13:18:46.938Z,49.40
2018-07-12T13:21:15.618Z,47.20
2018-07-12T13:23:44.344Z,47.60
2018-07-12T13:26:13.042Z,47.00
2018-07-12T13:28:41.793Z,47.90
2018-07-12T13:31:10.504Z,46.10
2018-07-12T13:33:39.173Z,45.80
2018-07-12T13:36:07.900Z,47.30
2018-07-12T13:38:36.590Z,46.70
2018-07-12T13:41:05.310Z,46.70
2018-07-12T13:43:34.022Z,45.00
2018-07-12T13:46:02.741Z,44.10
2018-07-12T13:48:31.433Z,44.90
2018-07-12T13:51:00.115Z,47.10
2018-07-12T13:53:28.782Z,48.40
2018-07-12T13:55:57.455Z,48.50
2018-07-12T13:58:26.185Z,48.10
2018-07-12T14:00:54.873Z,47.20
2018-07-12T14:03:23.828Z,47.40
2018-07-12T14:05:52.521Z,45.70
2018-07-12T14:08:21.212Z,45.50
2018-07-12T14:10:49.934Z,45.80
2018-07-12T14:13:18.628Z,46.30
2018-07-12T14:15:47.318Z,47.60
2018-07-12T14:18:15.970Z,49.00
2018-07-12T14:20:44.689Z,47.90
2018-07-12T14:23:13.366Z,46.80
2018-07-12T14:25:42.057Z,44.70
2018-07-12T14:28:10.733Z,45.80
2018-07-12T14:30:39.409Z,44.50
2018-07-12T14:33:08.148Z,42.50
2018-07-12T14:35:36.872Z,43.00
2018-07-12T14:38:05.601Z,42.70
2018-07-12T14:40:34.282Z,40.80
2018-07-12T14:43:02.930Z,42.30
2018-07-12T14:45:31.611Z,41.90
2018-07-12T14:48:00.296Z,42.40
2018-07-12T14:50:35.471Z,44.00
2018-07-12T14:53:04.128Z,45.40
2018-07-12T14:55:32.861Z,45.60
2018-07-12T14:58:01.540Z,46.30
2018-07-12T15:00:30.223Z,45.80
2018-07-12T15:02:58.989Z,45.90
2018-07-12T15:05:27.625Z,45.20
2018-07-12T15:07:56.435Z,46.20
2018-07-12T15:10:25.109Z,45.60
2018-07-12T15:12:54.220Z,44.90
2018-07-12T15:15:22.865Z,44.80
2018-07-12T15:17:51.509Z,43.60
2018-07-12T15:20:20.227Z,42.40
2018-07-12T15:22:48.868Z,40.60
2018-07-12T15:25:17.569Z,40.30
2018-07-12T15:27:46.229Z,39.80
2018-07-12T15:30:14.962Z,39.50
2018-07-12T15:32:43.618Z,40.70
2018-07-12T15:35:12.283Z,41.90
2018-07-12T15:37:40.984Z,42.80
2018-07-12T15:40:09.672Z,42.20
2018-07-12T15:42:38.348Z,42.90
2018-07-12T15:45:07.015Z,43.60
2018-07-12T15:47:35.873Z,45.40
2018-07-12T15:50:04.608Z,45.50
2018-07-12T15:52:33.307Z,45.40
2018-07-12T15:55:02.010Z,45.00
2018-07-12T15:57:31.010Z,43.90
2018-07-12T15:59:59.721Z,44.50
2018-07-12T16:02:28.353Z,44.10
2018-07-12T16:04:57.038Z,42.80
2018-07-12T16:07:25.670Z,41.90
2018-07-12T16:09:54.303Z,40.80
2018-07-12T16:12:23.002Z,39.90
2018-07-12T16:14:51.650Z,40.00
2018-07-12T16:17:20.323Z,38.50
2018-07-12T16:19:48.936Z,37.70
2018-07-12T16:22:17.621Z,37.90
2018-07-12T16:24:46.285Z,38.30
2018-07-12T16:27:14.932Z,37.80
2018-07-12T16:29:43.614Z,37.20
2018-07-12T16:32:12.276Z,37.60
2018-07-12T16:34:40.957Z,37.80
2018-07-12T16:37:09.703Z,38.10
2018-07-12T16:39:38.470Z,38.80
2018-07-12T16:42:07.159Z,38.70
2018-07-12T16:44:35.841Z,38.50
2018-07-12T16:47:04.734Z,38.00
2018-07-12T16:49:33.846Z,38.50
2018-07-12T16:52:02.525Z,38.40
2018-07-12T16:54:31.253Z,38.00
2018-07-12T16:56:59.852Z,38.50
2018-07-12T16:59:28.514Z,38.20
2018-07-12T17:01:57.189Z,38.10
2018-07-12T17:04:25.868Z,38.00
2018-07-12T17:06:54.545Z,37.90
2018-07-12T17:09:23.589Z,37.70
2018-07-12T17:11:52.632Z,38.10
2018-07-12T17:14:21.286Z,39.20
2018-07-12T17:16:49.946Z,39.40
2018-07-12T17:19:18.589Z,39.00
2018-07-12T17:21:47.285Z,39.10
2018-07-12T17:24:16.243Z,38.40
2018-07-12T17:26:44.908Z,38.10
2018-07-12T17:29:13.623Z,37.90
2018-07-12T17:31:42.285Z,37.70
2018-07-12T17:34:10.954Z,38.00
2018-07-12T17:36:39.608Z,38.50
2018-07-12T17:39:09.081Z,39.10
2018-07-12T17:41:37.825Z,40.00
2018-07-12T17:45:29.384Z,40.80
2018-07-12T17:47:58.077Z,42.30
2018-07-12T17:50:26.774Z,43.50
2018-07-12T17:52:55.438Z,43.80
2018-07-12T17:55:24.122Z,43.80
2018-07-12T17:57:52.780Z,44.30
2018-07-12T18:00:21.496Z,45.30
2018-07-12T18:02:50.729Z,45.40
2018-07-12T18:05:19.445Z,45.80
2018-07-12T18:07:48.105Z,46.10
2018-07-12T18:10:18.070Z,46.50
2018-07-12T18:12:47.234Z,46.80
2018-07-12T18:15:16.018Z,46.90
2018-07-12T18:17:44.758Z,47.40
2018-07-12T18:20:13.496Z,47.50
2018-07-12T18:22:43.030Z,47.90
2018-07-12T18:25:11.768Z,47.80
2018-07-12T18:27:40.392Z,47.80
2018-07-12T18:30:09.111Z,48.20
2018-07-12T18:35:06.553Z,48.10
2018-07-12T18:37:36.006Z,48.50
2018-07-12T18:40:04.875Z,49.20
2018-07-12T18:42:33.617Z,49.70
2018-07-12T18:45:02.329Z,49.80
2018-07-12T18:47:31.059Z,49.80
2018-07-12T18:49:59.831Z,50.30
2018-07-12T18:52:28.486Z,51.00
2018-07-12T18:54:57.176Z,50.90
2018-07-12T18:57:25.829Z,51.40
2018-07-12T18:59:57.269Z,51.80
2018-07-12T19:02:25.947Z,52.30
2018-07-12T19:04:54.686Z,52.70
2018-07-12T19:07:23.336Z,53.20
2018-07-12T19:09:52.080Z,53.80
2018-07-12T19:12:20.815Z,54.10
2018-07-12T19:14:49.515Z,54.40
2018-07-12T19:17:18.300Z,55.10
2018-07-12T19:19:46.998Z,55.30
2018-07-12T19:22:15.676Z,55.90
2018-07-12T19:24:44.338Z,56.00
2018-07-12T19:27:13.046Z,56.50
2018-07-12T19:29:41.706Z,56.90
2018-07-12T19:32:10.351Z,57.60
2018-07-12T19:34:39.111Z,57.90
2018-07-12T19:37:07.816Z,59.10
2018-07-12T19:39:36.545Z,59.00
2018-07-12T19:42:05.714Z,59.50
2018-07-12T19:44:34.374Z,59.90
2018-07-12T19:47:03.162Z,60.10
2018-07-12T19:49:31.914Z,60.70
2018-07-12T19:52:00.649Z,61.30
2018-07-12T19:54:29.578Z,61.60
2018-07-12T19:56:58.870Z,62.70
2018-07-12T19:59:27.593Z,62.80
2018-07-12T20:02:02.654Z,63.50
2018-07-12T20:04:31.481Z,63.50
2018-07-12T20:07:00.162Z,64.10
2018-07-12T20:09:28.833Z,64.50
2018-07-12T20:11:57.505Z,65.00
2018-07-12T20:14:26.148Z,65.50
2018-07-12T20:16:54.837Z,66.10
2018-07-12T20:19:23.480Z,66.30
2018-07-12T20:21:52.155Z,66.40
2018-07-12T20:24:20.836Z,66.90
2018-07-12T20:26:49.737Z,66.80
2018-07-12T20:29:18.445Z,67.20
2018-07-12T20:31:47.114Z,67.20
2018-07-12T20:34:15.805Z,67.80
2018-07-12T20:36:44.463Z,68.90
2018-07-12T20:39:13.252Z,68.70
2018-07-12T20:41:41.938Z,69.10
2018-07-12T20:44:10.592Z,69.90
2018-07-12T20:46:39.337Z,70.00
2018-07-12T20:49:08.051Z,70.40
2018-07-12T20:51:36.725Z,69.90
2018-07-12T20:54:05.380Z,70.20
2018-07-12T20:56:34.054Z,70.20
2018-07-12T20:59:02.977Z,69.90
2018-07-12T21:01:31.631Z,71.00
2018-07-12T21:04:00.352Z,71.20
2018-07-12T21:06:29.018Z,71.50
2018-07-12T21:08:57.737Z,72.00
2018-07-12T21:13:54.710Z,72.90
2018-07-12T21:16:23.396Z,73.10
2018-07-12T21:18:52.063Z,73.70
2018-07-12T21:21:20.720Z,74.30
2018-07-12T21:23:52.346Z,74.50
2018-07-12T21:26:21.045Z,74.90
2018-07-12T21:28:49.718Z,75.70
2018-07-12T21:31:18.429Z,75.90
2018-07-12T21:33:47.154Z,75.80
2018-07-12T21:36:15.841Z,75.90
2018-07-12T21:38:44.560Z,75.40
2018-07-12T21:41:13.239Z,75.70
2018-07-12T21:43:41.953Z,75.90
2018-07-12T21:46:10.637Z,76.40
2018-07-12T21:48:45.705Z,77.40
2018-07-12T21:51:14.413Z,78.10
2018-07-12T21:53:43.038Z,78.90
2018-07-12T21:56:11.684Z,79.90
2018-07-12T21:58:40.346Z,80.60
2018-07-12T22:01:09.092Z,81.40
2018-07-12T22:03:37.797Z,81.70
2018-07-12T22:06:06.469Z,82.40
2018-07-12T22:08:35.157Z,83.00
2018-07-12T22:11:05.003Z,83.70
2018-07-12T22:13:34.986Z,84.40
2018-07-12T22:16:03.653Z,84.90
2018-07-12T22:18:32.400Z,85.40
2018-07-12T22:21:01.092Z,86.00
2018-07-12T22:23:29.814Z,86.40
2018-07-12T22:25:58.517Z,86.40
2018-07-12T22:28:27.170Z,86.50
2018-07-12T22:30:55.853Z,86.80
2018-07-12T22:33:24.499Z,87.30
2018-07-12T22:35:53.141Z,88.00
2018-07-12T22:38:21.877Z,88.40
2018-07-12T22:40:50.514Z,88.60
2018-07-12T22:43:19.198Z,89.00
2018-07-12T22:45:47.870Z,89.70
2018-07-12T22:48:16.556Z,90.30
2018-07-12T22:50:45.217Z,90.40
2018-07-12T22:53:13.932Z,90.90
2018-07-12T22:55:42.573Z,91.50
2018-07-12T22:58:11.221Z,91.70
2018-07-12T23:00:39.925Z,91.90
2018-07-12T23:03:08.692Z,92.10
2018-07-12T23:05:37.381Z,92.20
2018-07-12T23:08:06.062Z,92.20
2018-07-12T23:10:34.751Z,92.20
2018-07-12T23:13:03.378Z,92.30
2018-07-12T23:15:32.094Z,92.60
2018-07-12T23:18:00.736Z,92.70
2018-07-12T23:20:29.393Z,92.80
2018-07-12T23:22:58.035Z,93.10
2018-07-12T23:25:26.758Z,93.30
2018-07-12T23:27:55.411Z,93.60
2018-07-12T23:30:24.113Z,93.80
2018-07-12T23:32:52.757Z,93.90
2018-07-12T23:35:21.442Z,94.10
2018-07-12T23:37:50.130Z,94.30
2018-07-12T23:40:18.824Z,94.70
2018-07-12T23:42:48.162Z,94.80
2018-07-12T23:45:16.949Z,95.00
2018-07-12T23:47:45.541Z,95.50
2018-07-12T23:50:14.194Z,95.60
2018-07-12T23:52:42.847Z,95.70
2018-07-12T23:55:11.508Z,96.10
2018-07-12T23:57:40.156Z,96.20
